createdAt,value
2019-03-12T00:00:55.120Z,9.83
2019-03-12T00:03:24.609Z,14.80
2019-03-12T00:05:54.160Z,11.63
2019-03-12T00:08:23.681Z,14.73
2019-03-12T00:10:53.249Z,16.80
2019-03-12T00:13:22.828Z,12.37
2019-03-12T00:15:52.403Z,8.37
2019-03-12T00:18:21.949Z,11.00
2019-03-12T00:20:51.382Z,12.47
2019-03-12T00:23:20.890Z,11.07
2019-03-12T00:25:50.356Z,11.13
2019-03-12T00:28:19.836Z,9.50
2019-03-12T00:30:49.429Z,10.97
2019-03-12T00:33:18.966Z,8.40
2019-03-12T00:35:48.647Z,9.07
2019-03-12T00:38:18.133Z,14.27
2019-03-12T00:40:47.569Z,10.80
2019-03-12T00:43:17.117Z,11.20
2019-03-12T00:45:46.685Z,8.00
2019-03-12T00:48:16.286Z,16.20
2019-03-12T00:50:45.934Z,10.50
2019-03-12T00:53:15.421Z,9.10
2019-03-12T00:55:45.023Z,12.07
2019-03-12T00:58:14.522Z,11.23
2019-03-12T01:00:44.122Z,12.27
2019-03-12T01:03:13.679Z,16.53
2019-03-12T01:05:43.261Z,11.60
2019-03-12T01:08:12.822Z,12.60
2019-03-12T01:10:42.374Z,11.70
2019-03-12T01:13:16.102Z,11.50
2019-03-12T01:15:46.380Z,13.30
2019-03-12T01:18:15.960Z,12.77
2019-03-12T01:20:45.566Z,12.93
2019-03-12T01:23:15.100Z,9.93
2019-03-12T01:25:44.671Z,15.17
2019-03-12T01:28:14.155Z,14.10
2019-03-12T01:30:43.734Z,11.70
2019-03-12T01:33:13.319Z,9.17
2019-03-12T01:35:42.805Z,9.77
2019-03-12T01:38:12.350Z,7.37
2019-03-12T01:40:41.968Z,11.97
2019-03-12T01:43:11.446Z,10.23
2019-03-12T01:45:40.921Z,12.97
2019-03-12T01:48:10.561Z,15.97
2019-03-12T01:50:39.994Z,11.67
2019-03-12T01:53:09.624Z,13.30
2019-03-12T01:55:39.255Z,15.37
2019-03-12T01:58:08.907Z,11.83
2019-03-12T02:00:38.635Z,12.43
2019-03-12T02:03:08.238Z,9.53
2019-03-12T02:05:37.729Z,14.87
2019-03-12T02:08:07.284Z,11.13
2019-03-12T02:10:36.962Z,16.10
2019-03-12T02:13:06.516Z,15.20
2019-03-12T02:15:36.095Z,11.70
2019-03-12T02:18:05.562Z,9.97
2019-03-12T02:20:35.131Z,10.17
2019-03-12T02:23:04.626Z,10.83
2019-03-12T02:25:34.227Z,10.37
2019-03-12T02:28:03.786Z,15.33
2019-03-12T02:30:33.300Z,7.10
2019-03-12T02:33:02.725Z,13.97
2019-03-12T02:35:32.226Z,17.17
2019-03-12T02:38:01.764Z,13.83
2019-03-12T02:40:31.352Z,12.23
2019-03-12T02:43:00.908Z,11.23
2019-03-12T02:45:30.465Z,14.93
2019-03-12T02:48:00.057Z,14.07
2019-03-12T02:50:29.677Z,14.57
2019-03-12T02:52:59.303Z,12.67
2019-03-12T02:55:28.876Z,15.03
2019-03-12T02:57:58.379Z,11.70
2019-03-12T03:00:27.930Z,16.37
2019-03-12T03:02:57.478Z,13.97
2019-03-12T03:05:27.079Z,15.90
2019-03-12T03:08:02.108Z,17.83
2019-03-12T03:10:31.697Z,15.27
2019-03-12T03:13:01.239Z,14.47
2019-03-12T03:15:38.182Z,16.00
2019-03-12T03:18:07.640Z,14.10
2019-03-12T03:20:37.111Z,17.57
2019-03-12T03:23:06.657Z,17.23
2019-03-12T03:25:36.109Z,15.47
2019-03-12T03:28:05.569Z,16.30
2019-03-12T03:30:35.063Z,16.17
2019-03-12T03:33:04.792Z,21.73
2019-03-12T03:35:34.354Z,21.73
2019-03-12T03:38:03.889Z,14.67
2019-03-12T03:40:33.449Z,16.93
2019-03-12T03:43:03.049Z,17.20
2019-03-12T03:45:32.678Z,19.27
2019-03-12T03:48:02.258Z,20.27
2019-03-12T03:50:31.872Z,18.03
2019-03-12T03:53:01.479Z,25.87
2019-03-12T03:55:31.050Z,19.17
2019-03-12T03:58:00.783Z,22.17
2019-03-12T04:00:30.535Z,22.37
2019-03-12T04:03:00.232Z,18.23
2019-03-12T04:05:29.905Z,22.00
2019-03-12T04:07:59.590Z,20.93
2019-03-12T04:10:29.217Z,20.10
2019-03-12T04:12:58.910Z,25.10
2019-03-12T04:15:28.567Z,30.77
2019-03-12T04:17:58.130Z,26.87
2019-03-12T04:20:27.744Z,29.90
2019-03-12T04:22:57.312Z,27.20
2019-03-12T04:25:27.121Z,24.07
2019-03-12T04:27:56.769Z,30.33
2019-03-12T04:30:39.578Z,27.13
2019-03-12T04:33:32.308Z,26.30
2019-03-12T04:36:01.954Z,25.80
2019-03-12T04:38:31.563Z,26.10
2019-03-12T04:41:01.226Z,30.97
2019-03-12T04:43:30.823Z,35.37
2019-03-12T04:46:00.395Z,27.10
2019-03-12T04:48:29.953Z,24.00
2019-03-12T04:50:59.519Z,27.03
2019-03-12T04:53:30.219Z,21.10
2019-03-12T04:55:59.930Z,27.23
2019-03-12T04:58:29.549Z,22.87
2019-03-12T05:00:59.165Z,23.67
2019-03-12T05:03:28.897Z,23.30
2019-03-12T05:05:58.510Z,24.13
2019-03-12T05:08:28.013Z,22.17
2019-03-12T05:10:57.590Z,25.57
2019-03-12T05:13:27.202Z,26.40
2019-03-12T05:15:56.918Z,21.73
2019-03-12T05:18:26.639Z,23.30
2019-03-12T05:20:56.413Z,20.63
2019-03-12T05:23:26.050Z,20.63
2019-03-12T05:25:55.709Z,20.43
2019-03-12T05:28:25.488Z,21.30
2019-03-12T05:30:55.259Z,19.33
2019-03-12T05:33:24.846Z,17.93
2019-03-12T05:35:55.558Z,18.87
2019-03-12T05:38:25.273Z,20.67
2019-03-12T05:40:55.199Z,26.20
2019-03-12T05:43:24.804Z,22.97
2019-03-12T05:45:54.522Z,17.93
2019-03-12T05:48:24.176Z,24.70
2019-03-12T05:50:53.857Z,19.10
2019-03-12T05:53:28.715Z,18.57
2019-03-12T05:55:58.347Z,18.80
2019-03-12T05:58:27.900Z,20.87
2019-03-12T06:00:57.584Z,18.67
2019-03-12T06:03:27.202Z,18.13
2019-03-12T06:05:56.953Z,20.83
2019-03-12T06:08:26.645Z,22.17
2019-03-12T06:10:56.430Z,15.00
2019-03-12T06:13:25.973Z,18.27
2019-03-12T06:15:55.705Z,21.97
2019-03-12T06:18:25.346Z,15.73
2019-03-12T06:20:56.291Z,19.77
2019-03-12T06:23:25.961Z,21.10
2019-03-12T06:25:56.989Z,17.37
2019-03-12T06:28:26.637Z,19.10
2019-03-12T06:31:18.146Z,18.63
2019-03-12T06:33:50.673Z,18.57
2019-03-12T06:36:56.973Z,18.20
2019-03-12T07:27:34.659Z,17.33
2019-03-12T07:30:22.911Z,14.83
2019-03-12T07:33:01.819Z,17.53
2019-03-12T07:35:59.142Z,17.83
2019-03-12T07:38:51.893Z,13.33
2019-03-12T07:41:38.578Z,16.27
2019-03-12T07:44:25.296Z,12.00
2019-03-12T07:47:06.316Z,13.53
2019-03-12T07:50:03.398Z,12.73
2019-03-12T07:52:46.708Z,13.60
2019-03-12T07:55:50.103Z,12.63
2019-03-12T07:58:44.538Z,13.33
2019-03-12T08:01:18.958Z,13.37
2019-03-12T08:04:22.182Z,16.63
2019-03-12T08:06:56.440Z,11.17
2019-03-12T08:09:53.910Z,10.90
2019-03-12T08:12:54.394Z,10.37
2019-03-12T08:15:42.661Z,12.23
2019-03-12T08:18:30.954Z,10.67
2019-03-12T08:21:25.726Z,12.53
2019-03-12T08:24:04.680Z,13.77
2019-03-12T08:26:43.503Z,10.27
2019-03-12T08:29:34.727Z,14.97
2019-03-12T08:32:12.250Z,10.40
2019-03-12T08:35:03.229Z,15.33
2019-03-12T08:37:50.187Z,11.47
2019-03-12T08:40:26.422Z,10.30
2019-03-12T08:43:16.769Z,14.13
2019-03-12T08:46:18.336Z,11.87
2019-03-12T08:48:53.867Z,16.70
2019-03-12T08:51:40.780Z,16.40
2019-03-12T08:54:22.546Z,12.07
2019-03-12T08:57:06.664Z,12.60
2019-03-12T09:00:13.212Z,16.80
2019-03-12T09:03:13.576Z,10.83
2019-03-12T09:05:59.512Z,12.67
2019-03-12T09:08:53.257Z,13.60
2019-03-12T09:11:31.992Z,14.37
2019-03-12T09:14:23.287Z,13.50
2019-03-12T09:17:10.635Z,8.63
2019-03-12T09:19:57.394Z,9.03
2019-03-12T09:22:41.119Z,10.63
2019-03-12T09:25:29.663Z,14.40
2019-03-12T09:28:21.182Z,9.83
2019-03-12T09:31:00.024Z,11.07
2019-03-12T09:34:06.881Z,9.03
2019-03-12T09:37:03.990Z,10.07
2019-03-12T09:39:43.215Z,9.37
2019-03-12T09:42:34.256Z,11.10
2019-03-12T09:45:24.704Z,9.77
2019-03-12T09:48:24.835Z,9.40
2019-03-12T09:51:24.965Z,10.73
2019-03-12T09:54:16.112Z,10.93
2019-03-12T09:57:07.351Z,7.00
2019-03-12T09:59:56.640Z,9.30
2019-03-12T10:02:45.077Z,9.50
2019-03-12T10:05:48.710Z,9.93
2019-03-12T10:08:34.198Z,8.43
2019-03-12T10:11:33.839Z,9.57
2019-03-12T10:14:21.004Z,7.40
2019-03-12T10:16:58.396Z,9.73
2019-03-12T10:19:50.816Z,10.23
2019-03-12T10:22:26.991Z,10.33
2019-03-12T10:25:18.527Z,8.03
2019-03-12T10:27:57.648Z,8.73
2019-03-12T10:30:37.557Z,6.03
2019-03-12T10:33:24.381Z,8.37
2019-03-12T10:36:12.669Z,7.10
2019-03-12T10:39:34.823Z,11.00
2019-03-12T10:42:10.053Z,10.13
2019-03-12T10:44:45.855Z,7.37
2019-03-12T10:47:19.202Z,11.27
2019-03-12T10:49:48.694Z,9.17
2019-03-12T10:52:18.140Z,10.80
2019-03-12T10:54:47.468Z,8.57
2019-03-12T10:57:16.850Z,10.17
2019-03-12T10:59:46.253Z,10.53
2019-03-12T11:02:15.610Z,8.20
2019-03-12T11:04:45.080Z,9.50
2019-03-12T11:07:16.672Z,8.80
2019-03-12T11:09:45.443Z,8.80
2019-03-12T11:12:14.750Z,7.70
2019-03-12T11:14:44.072Z,8.77
2019-03-12T11:17:13.644Z,8.43
2019-03-12T11:19:42.943Z,7.47
2019-03-12T11:22:12.286Z,12.83
2019-03-12T11:24:41.779Z,11.40
2019-03-12T11:27:11.133Z,13.27
2019-03-12T11:29:40.521Z,8.67
2019-03-12T11:32:09.905Z,12.63
2019-03-12T11:34:39.632Z,12.37
2019-03-12T11:37:09.098Z,11.97
2019-03-12T11:39:38.639Z,10.03
2019-03-12T11:42:08.030Z,12.57
2019-03-12T11:44:37.386Z,12.57
2019-03-12T11:47:06.703Z,13.03
2019-03-12T11:49:36.112Z,9.00
2019-03-12T11:52:05.627Z,10.43
2019-03-12T11:54:35.019Z,17.53
2019-03-12T11:57:04.442Z,11.27
2019-03-12T11:59:33.936Z,14.90
2019-03-12T12:02:03.260Z,10.00
2019-03-12T12:04:32.700Z,7.10
